Nearby METAR Reports

 

KMSN - Madison, Wisconsin, USA
Distance from station: WNW 8mi, 13km
Updated: Mon, Jun-27-2022 5:53pm CDT
Few Clouds
Few Clouds
 Wind from NW
Wind: NW 8 mph , 13 km/h
Temperature: 77°F , 25°C
Dew Point: 50°F , 10°C
Humidity: 39%
Barometer: 30.19 inHg , 1022.4 hPa
Clouds: Few Clouds
Visibility: 10 miles , 16 km
Cloud details: Few Clouds 6500 ft
2022/06/27 22:53 KMSN 272253Z 31007KT 10SM FEW065 25/10 A3019 RMK AO2 SLP222 T02500100
KC29 - Middleton, Wisconsin, USA
Distance from station: W 17mi, 27km
Updated: Mon, Jun-27-2022 6:35pm CDT
Clear
Clear
 Wind from WNW
Wind: WNW 9 mph , 15 km/h
Temperature: 77°F , 25°C
Dew Point: 50°F , 10°C
Humidity: 39%
Barometer: 30.21 inHg , 1023 hPa
Clouds: Clear
Visibility: 10 miles , 16 km
2022/06/27 23:35 KC29 272335Z AUTO 30008KT 10SM CLR 25/10 A3021 RMK AO1 T02480096
 
KRYV - Watertown, Wisconsin, USA
Distance from station: ENE 25mi, 40km
Updated: Mon, Jun-13-2022 3:35pm CDT
NOT Current
Heavy thunderstorm, Rain, Mostly cloudy
Heavy thunderstorm, Rain, Mostly cloudy
 Wind from NNW
Wind: NNW 13 mph , 20 km/h, Gust: 22 mph , 35 km/h
Temperature: 70°F , 21°C
Dew Point: 70°F , 21°C
Humidity: 100%
Barometer: 29.88 inHg , 1011.9 hPa
Summary: Heavy thunderstorm, Rain
Clouds: Mostly cloudy
Visibility: 7 miles , 11 km
Cloud details: Partly cloudy 1100 ft
Mostly cloudy 3100 ft
Mostly cloudy 6000 ft
2022/06/13 20:35 KRYV 132035Z AUTO 33011G19KT 7SM +TSRA SCT011 BKN031 BKN060 21/21 A2988 RMK AO2 LTG DSNT ALQS P0003 T02120205
KUNU - Juneau, Wisconsin, USA
Distance from station: NE 33mi, 54km
Updated: Mon, Jun-27-2022 6:55pm CDT
Clear
Clear
 Wind from calm
Wind: Calm
Temperature: 73°F , 23°C
Dew Point: 43°F , 6°C
Humidity: 33%
Barometer: 30.20 inHg , 1022.7 hPa
Clouds: Clear
Visibility: 10 miles , 16 km
2022/06/27 23:55 KUNU 272355Z AUTO 00000KT 10SM CLR 23/06 A3020 RMK AO2 T02260058 10231 20203
 
KJVL - Janesville/Rock, Wisconsin, USA
Distance from station: SSE 34mi, 55km
Updated: Mon, Jun-27-2022 6:45pm CDT
Few Clouds
Few Clouds
 Wind from NW
Wind: NW 8 mph , 13 km/h
Temperature: 77°F , 25°C
Dew Point: 45°F , 7°C
Humidity: 32%
Barometer: 30.20 inHg , 1022.7 hPa
Clouds: Few Clouds
Visibility: 10 miles , 16 km
Cloud details: Few Clouds 6000 ft
2022/06/27 23:45 KJVL 272345Z 31007KT 10SM FEW060 25/07 A3020
KEFT - Monroe, Wisconsin, USA
Distance from station: SSW 39mi, 63km
Updated: Mon, Jun-27-2022 6:55pm CDT
Clear
Clear
 Wind from NNW
Wind: NNW 7 mph , 11 km/h
Temperature: 77°F , 25°C
Dew Point: 48°F , 9°C
Humidity: 36%
Barometer: 30.20 inHg , 1022.7 hPa
Clouds: Clear
Visibility: 10 miles , 16 km
2022/06/27 23:55 KEFT 272355Z AUTO 33006KT 10SM CLR 25/09 A3020 RMK AO2 T02450087 10250 20226
 
KDLL - Dells/Baraboo, Wisconsin, USA
Distance from station: NW 41mi, 65km
Updated: Mon, Jun-27-2022 6:55pm CDT
Clear
Clear
 Wind from WNW
Wind: WNW 7 mph , 11 km/h
Temperature: 73°F , 23°C
Dew Point: 48°F , 9°C
Humidity: 41%
Barometer: 30.21 inHg , 1023 hPa
Clouds: Clear
Visibility: 10 miles , 16 km
2022/06/27 23:55 KDLL 272355Z AUTO 29006KT 10SM CLR 23/09 A3021 RMK AO2 T02320086 10239 20212
KUES - Waukesha Cnty, Wisconsin, USA
Distance from station: E 48mi, 77km
Updated: Mon, Jun-27-2022 5:45pm CDT
Clear
Clear
 Wind from WNW
Wind: WNW 12 mph , 19 km/h
Temperature: 73°F , 23°C
Dew Point: 41°F , 5°C
Humidity: 31%
Barometer: 30.22 inHg , 1023.4 hPa
Clouds: Clear
Visibility: 10 miles , 16 km
2022/06/27 22:45 KUES 272245Z 30010KT 10SM CLR 23/05 A3022
 
KC35 - Reedsburg, Wisconsin, USA
Distance from station: NW 50mi, 80km
Updated: Mon, Jun-27-2022 6:35pm CDT
Clear
Clear
 Wind from WNW
Wind: WNW 7 mph , 11 km/h
Temperature: 75°F , 24°C
Dew Point: 50°F , 10°C
Humidity: 41%
Barometer: 30.20 inHg , 1022.7 hPa
Clouds: Clear
Visibility: 10 miles , 16 km
2022/06/27 23:35 KC35 272335Z AUTO 30006KT 10SM CLR 24/10 A3020 RMK AO2 T02400104 PWINO
KLNR - Lone Rock, Wisconsin, USA
Distance from station: W 50mi, 81km
Updated: Mon, Jun-27-2022 5:56pm CDT
Clear
Clear
 Wind from WNW
Wind: WNW 8 mph , 13 km/h
Temperature: 79°F , 26°C
Dew Point: 52°F , 11°C
Humidity: 39%
Barometer: 30.20 inHg , 1022.7 hPa
Clouds: Clear
Visibility: 10 miles , 16 km
2022/06/27 22:56 KLNR 272256Z AUTO 30007KT 10SM CLR 26/11 A3020 RMK AO2 SLP220 T02560111
 
KBUU - Burlington, Wisconsin, USA
Distance from station: ESE 54mi, 86km
Updated: Mon, Jun-27-2022 6:35pm CDT

 Wind from NW
Wind: NW 7 mph , 11 km/h
Temperature: 75°F , 24°C
Dew Point: 41°F , 5°C
Humidity: 29%
Barometer: 30.20 inHg , 1022.7 hPa
Visibility: 10 miles , 16 km
2022/06/27 23:35 KBUU 272335Z AUTO 32006KT 10SM 24/05 A3020 RMK AO2 T02380051 PWINO
KMRJ - Mineral Point, Wisconsin, USA
Distance from station: WSW 54mi, 88km
Updated: Mon, Jun-27-2022 5:55pm CDT
Clear
Clear
 Wind from NW
Wind: NW 6 mph , 9 km/h
Temperature: 77°F , 25°C
Dew Point: 46°F , 8°C
Humidity: 34%
Barometer: 30.22 inHg , 1023.4 hPa
Clouds: Clear
Visibility: 10 miles , 16 km
2022/06/27 22:55 KMRJ 272255Z AUTO 31005KT 10SM CLR 25/08 A3022 RMK AO2
 
KETB - West Bend, Wisconsin, USA
Distance from station: ENE 58mi, 93km
Updated: Mon, Jun-27-2022 6:55pm CDT
Clear
Clear
 Wind from ESE
Wind: ESE 6 mph , 9 km/h
Temperature: 64°F , 18°C
Dew Point: 50°F , 10°C
Humidity: 60%
Barometer: 30.21 inHg , 1023 hPa
Clouds: Clear
Visibility: 10 miles , 16 km
2022/06/27 23:55 KETB 272355Z AUTO 12005KT 10SM CLR 18/10 A3021 RMK AO2
KFLD - Fond Du Lac, Wisconsin, USA
Distance from station: NE 58mi, 94km
Updated: Mon, Jun-27-2022 5:53pm CDT
Clear
Clear
 Wind from NNW
Wind: NNW 8 mph , 13 km/h
Temperature: 75°F , 24°C
Dew Point: 39°F , 4°C
Humidity: 27%
Barometer: 30.19 inHg , 1022.4 hPa
Clouds: Clear
Visibility: 10 miles , 16 km
2022/06/27 22:53 KFLD 272253Z AUTO 33007KT 10SM CLR 24/04 A3019 RMK AO2 SLP224 T02390039
 
KMWC - Milwaukee/Lawren, Wisconsin, USA
Distance from station: E 59mi, 94km
Updated: Mon, Jun-27-2022 5:45pm CDT
Clear
Clear
 Wind from ESE
Wind: ESE 10 mph , 17 km/h
Temperature: 66°F , 19°C
Dew Point: 46°F , 8°C
Humidity: 49%
Barometer: 30.22 inHg , 1023.4 hPa
Clouds: Clear
Visibility: 10 miles , 16 km
2022/06/27 22:45 KMWC 272245Z 12009KT 10SM CLR 19/08 A3022
KFEP - Freeport, Illinois, USA
Distance from station: SSW 62mi, 100km
Updated: Mon, Jun-27-2022 6:35pm CDT
Clear
Clear
 Wind from NNW
Wind: NNW 10 mph , 17 km/h
Temperature: 77°F , 25°C
Dew Point: 55°F , 13°C
Humidity: 47%
Barometer: 30.22 inHg , 1023.4 hPa
Clouds: Clear
Visibility: 10 miles , 16 km
2022/06/27 23:35 KFEP 272335Z AUTO 34009KT 10SM CLR 25/13 A3022 RMK AO2 T02480129
 
KRFD - Rockford, Illinois, USA
Distance from station: S 62mi, 100km
Updated: Mon, Jun-27-2022 5:54pm CDT
Clear
Clear
 Wind from WNW
Wind: WNW 8 mph , 13 km/h
Temperature: 79°F , 26°C
Dew Point: 48°F , 9°C
Humidity: 34%
Barometer: 30.22 inHg , 1023.4 hPa
Clouds: Clear
Visibility: 10 miles , 16 km
2022/06/27 22:54 KRFD 272254Z 30007KT 10SM CLR 26/09 A3022 RMK AO2 SLP230 T02610089
KY50 - Wautoma, Wisconsin, USA
Distance from station: N 65mi, 104km
Updated: Mon, Jun-27-2022 5:56pm CDT
Clear
Clear
 Wind from NW
Wind: NW 8 mph , 13 km/h
Temperature: 77°F , 25°C
Dew Point: 43°F , 6°C
Humidity: 30%
Barometer: 30.20 inHg , 1022.7 hPa
Clouds: Clear
2022/06/27 22:56 KY50 272256Z AUTO 31007KT CLR 25/06 A3020 RMK AO2 SLP223 T02500056 PWINO $
 
KMKE - Milwaukee, Wisconsin, USA
Distance from station: E 66mi, 107km
Updated: Mon, Jun-27-2022 6:52pm CDT
Clear
Clear
 Wind from ESE
Wind: ESE 10 mph , 17 km/h
Temperature: 64°F , 18°C
Dew Point: 54°F , 12°C
Humidity: 68%
Barometer: 30.21 inHg , 1023 hPa
Clouds: Clear
Visibility: 10 miles , 16 km
2022/06/27 23:52 KMKE 272352Z 11009KT 10SM CLR 18/12 A3021 RMK AO2 SLP229 T01830117
KOSH - Oshkosh, Wisconsin, USA
Distance from station: NNE 68mi, 110km
Updated: Mon, Jun-27-2022 5:53pm CDT
Clear
Clear
 Wind from NW
Wind: NW 8 mph , 13 km/h
Temperature: 73°F , 23°C
Dew Point: 43°F , 6°C
Humidity: 33%
Barometer: 30.18 inHg , 1022 hPa
Clouds: Clear
Visibility: 10 miles , 16 km
2022/06/27 22:53 KOSH 272253Z 31007KT 10SM CLR 23/06 A3018 RMK AO2 SLP214 T02330061